createdAt,value
2017-07-17T00:00:37.768Z,6.18
2017-07-17T00:03:05.294Z,3.35
2017-07-17T00:05:33.094Z,3.15
2017-07-17T00:08:00.635Z,3.55
2017-07-17T00:10:28.173Z,4.18
2017-07-17T00:12:55.973Z,4.30
2017-07-17T00:15:23.494Z,3.65
2017-07-17T00:17:51.004Z,5.32
2017-07-17T00:20:18.578Z,3.90
2017-07-17T00:22:46.125Z,4.47
2017-07-17T00:25:13.646Z,3.83
2017-07-17T00:27:41.417Z,4.32
2017-07-17T00:30:09.182Z,4.35
2017-07-17T00:32:36.750Z,4.28
2017-07-17T00:35:04.323Z,4.78
2017-07-17T00:37:31.858Z,5.00
2017-07-17T00:39:59.361Z,5.40
2017-07-17T00:42:27.694Z,4.35
2017-07-17T00:44:55.231Z,4.85
2017-07-17T00:47:22.758Z,5.20
2017-07-17T00:49:50.318Z,6.05
2017-07-17T00:52:17.863Z,5.32
2017-07-17T00:54:46.170Z,5.25
2017-07-17T00:57:13.750Z,5.30
2017-07-17T00:59:41.510Z,5.20
2017-07-17T01:02:09.107Z,5.65
2017-07-17T01:04:36.618Z,4.82
2017-07-17T01:07:04.126Z,5.53
2017-07-17T01:09:32.413Z,4.95
2017-07-17T01:12:00.682Z,4.37
2017-07-17T01:14:29.054Z,4.80
2017-07-17T01:16:57.590Z,6.07
2017-07-17T01:19:25.451Z,6.65
2017-07-17T01:21:52.988Z,5.55
2017-07-17T01:24:20.562Z,5.60
2017-07-17T01:26:48.112Z,5.40
2017-07-17T01:29:15.647Z,6.00
2017-07-17T01:31:43.177Z,7.03
2017-07-17T01:34:10.714Z,6.20
2017-07-17T01:36:38.302Z,5.97
2017-07-17T01:39:06.573Z,8.10
2017-07-17T01:41:34.886Z,6.82
2017-07-17T01:44:02.391Z,6.80
2017-07-17T01:46:29.950Z,4.97
2017-07-17T01:48:57.778Z,6.60
2017-07-17T01:51:25.330Z,5.68
2017-07-17T01:53:52.921Z,6.47
2017-07-17T01:56:20.471Z,8.93
2017-07-17T01:58:47.979Z,6.20
2017-07-17T02:01:15.481Z,6.72
2017-07-17T02:03:43.327Z,6.53
2017-07-17T02:06:11.110Z,6.43
2017-07-17T02:08:38.630Z,5.72
2017-07-17T02:11:06.134Z,6.20
2017-07-17T02:13:33.673Z,5.53
2017-07-17T02:16:01.195Z,6.45
2017-07-17T02:18:28.763Z,6.40
2017-07-17T02:20:56.313Z,6.65
2017-07-17T02:23:24.198Z,6.03
2017-07-17T02:25:51.723Z,7.35
2017-07-17T02:28:19.266Z,7.50
2017-07-17T02:30:47.582Z,7.20
2017-07-17T02:33:15.156Z,6.93
2017-07-17T02:35:42.714Z,7.80
2017-07-17T02:38:10.226Z,7.37
2017-07-17T02:40:37.750Z,7.85
2017-07-17T02:43:05.299Z,7.50
2017-07-17T02:45:32.818Z,8.68
2017-07-17T02:48:00.349Z,7.30
2017-07-17T02:50:27.908Z,6.95
2017-07-17T02:52:55.457Z,7.25
2017-07-17T02:55:24.083Z,6.45
2017-07-17T02:57:51.586Z,6.82
2017-07-17T03:00:19.915Z,7.00
2017-07-17T03:02:47.434Z,7.82
2017-07-17T03:05:14.954Z,6.60
2017-07-17T03:07:42.794Z,6.15
2017-07-17T03:10:10.738Z,6.82
2017-07-17T03:12:38.298Z,6.72
2017-07-17T03:15:05.853Z,6.65
2017-07-17T03:17:33.633Z,7.70
2017-07-17T03:20:01.141Z,7.30
2017-07-17T03:22:29.446Z,6.90
2017-07-17T03:24:56.955Z,6.20
2017-07-17T03:27:24.452Z,6.75
2017-07-17T03:29:53.673Z,6.80
2017-07-17T03:32:21.218Z,6.20
2017-07-17T03:34:48.747Z,6.80
2017-07-17T03:37:17.030Z,5.97
2017-07-17T03:39:44.574Z,7.20
2017-07-17T03:42:12.914Z,7.10
2017-07-17T03:44:40.467Z,5.95
2017-07-17T03:47:08.031Z,6.80
2017-07-17T03:49:35.686Z,7.25
2017-07-17T03:52:03.274Z,7.65
2017-07-17T03:54:30.889Z,8.23
2017-07-17T03:56:58.479Z,7.12
2017-07-17T03:59:26.015Z,8.40
2017-07-17T04:01:53.875Z,8.57
2017-07-17T04:04:21.445Z,6.85
2017-07-17T04:06:48.973Z,6.32
2017-07-17T04:09:16.566Z,6.68
2017-07-17T04:11:44.423Z,6.75
2017-07-17T04:14:11.978Z,6.35
2017-07-17T04:16:39.829Z,6.50
2017-07-17T04:19:07.339Z,8.02
2017-07-17T04:21:35.870Z,7.00
2017-07-17T04:24:03.393Z,6.65
2017-07-17T04:26:31.263Z,7.20
2017-07-17T04:28:58.784Z,9.05
2017-07-17T04:31:27.088Z,7.72
2017-07-17T04:33:54.609Z,8.18
2017-07-17T04:36:22.441Z,7.87
2017-07-17T04:38:49.961Z,7.72
2017-07-17T04:41:17.493Z,7.37
2017-07-17T04:43:45.110Z,8.77
2017-07-17T04:46:12.656Z,9.50
2017-07-17T04:48:40.216Z,6.85
2017-07-17T04:51:08.095Z,8.02
2017-07-17T04:53:35.903Z,6.72
2017-07-17T04:56:04.267Z,7.03
2017-07-17T04:58:31.867Z,7.65
2017-07-17T05:00:59.452Z,7.05
2017-07-17T05:03:27.031Z,8.25
2017-07-17T05:05:54.813Z,7.50
2017-07-17T05:08:23.155Z,7.18
2017-07-17T05:10:50.769Z,8.57
2017-07-17T05:13:18.284Z,13.07
2017-07-17T05:15:45.851Z,7.57
2017-07-17T05:18:13.419Z,8.30
2017-07-17T05:20:41.705Z,7.90
2017-07-17T05:23:09.264Z,8.27
2017-07-17T05:25:37.899Z,8.13
2017-07-17T05:28:05.466Z,8.80
2017-07-17T05:30:33.325Z,8.90
2017-07-17T05:33:00.864Z,8.35
2017-07-17T05:35:28.737Z,8.65
2017-07-17T05:37:56.577Z,9.38
2017-07-17T05:40:24.144Z,9.07
2017-07-17T05:42:51.923Z,11.55
2017-07-17T05:45:19.534Z,8.60
2017-07-17T05:47:48.062Z,8.07
2017-07-17T05:50:15.637Z,8.43
2017-07-17T05:52:43.149Z,10.27
2017-07-17T05:55:10.695Z,9.50
2017-07-17T05:57:38.198Z,9.48
2017-07-17T06:00:05.730Z,10.75
2017-07-17T06:02:33.236Z,9.00
2017-07-17T06:05:00.813Z,10.00
2017-07-17T06:07:29.196Z,9.60
2017-07-17T06:09:57.768Z,9.20
2017-07-17T06:12:25.286Z,9.85
2017-07-17T06:14:52.855Z,11.12
2017-07-17T06:17:20.393Z,9.57
2017-07-17T06:19:47.906Z,10.88
2017-07-17T06:22:15.505Z,11.05
2017-07-17T06:24:43.105Z,12.80
2017-07-17T06:27:11.538Z,10.93
2017-07-17T06:29:39.109Z,11.25
2017-07-17T06:32:06.966Z,13.25
2017-07-17T06:34:34.523Z,10.70
2017-07-17T06:37:02.029Z,10.90
2017-07-17T06:39:30.321Z,12.65
2017-07-17T06:41:57.827Z,12.40
2017-07-17T06:44:25.750Z,13.70
2017-07-17T06:46:53.543Z,11.55
2017-07-17T06:49:21.090Z,10.95
2017-07-17T06:51:48.679Z,13.18
2017-07-17T06:54:16.521Z,10.45
2017-07-17T06:56:44.034Z,12.30
2017-07-17T06:59:11.544Z,10.23
2017-07-17T07:04:11.405Z,14.35
2017-07-17T07:06:39.712Z,11.35
2017-07-17T07:09:07.791Z,10.90
2017-07-17T07:11:35.529Z,11.48
2017-07-17T07:14:03.057Z,12.23
2017-07-17T07:16:30.585Z,10.68
2017-07-17T07:18:58.098Z,10.73
2017-07-17T07:21:25.629Z,11.23
2017-07-17T07:23:53.934Z,13.07
2017-07-17T07:26:21.446Z,13.77
2017-07-17T07:28:49.039Z,12.55
2017-07-17T07:31:16.591Z,12.18
2017-07-17T07:33:44.899Z,13.15
2017-07-17T07:36:12.409Z,11.48
2017-07-17T07:38:40.710Z,13.90
2017-07-17T07:41:08.278Z,12.95
2017-07-17T07:43:35.806Z,12.77
2017-07-17T07:46:04.129Z,13.13
2017-07-17T07:48:31.703Z,13.05
2017-07-17T07:50:59.267Z,13.50
2017-07-17T07:53:26.865Z,12.60
2017-07-17T07:55:55.139Z,12.23
2017-07-17T07:58:22.947Z,11.43
2017-07-17T08:00:50.602Z,11.80
2017-07-17T08:03:18.164Z,10.90
2017-07-17T08:05:45.740Z,11.05
2017-07-17T08:08:13.245Z,10.40
2017-07-17T08:10:40.816Z,9.38
2017-07-17T08:13:08.346Z,9.40
2017-07-17T08:15:35.920Z,9.48
2017-07-17T08:18:03.475Z,10.18
2017-07-17T08:20:31.037Z,10.75
2017-07-17T08:22:58.567Z,8.05
2017-07-17T08:25:26.926Z,7.87
2017-07-17T08:27:54.491Z,8.25
2017-07-17T08:30:22.005Z,7.32
2017-07-17T08:32:49.531Z,7.53
2017-07-17T08:35:17.035Z,6.85
2017-07-17T08:37:44.558Z,8.85
2017-07-17T08:40:12.070Z,9.45
2017-07-17T08:42:39.610Z,12.75
2017-07-17T08:45:07.113Z,13.02
2017-07-17T08:47:34.700Z,11.80
2017-07-17T08:50:02.245Z,13.27
2017-07-17T08:52:29.806Z,13.43
2017-07-17T08:54:57.399Z,12.48
2017-07-17T08:57:25.074Z,12.93
2017-07-17T08:59:52.587Z,12.50
2017-07-17T09:02:20.176Z,13.57
2017-07-17T09:04:47.726Z,16.98
2017-07-17T09:07:15.235Z,15.90
2017-07-17T09:09:42.809Z,18.37
2017-07-17T09:12:10.593Z,16.75
2017-07-17T09:14:38.151Z,25.80
2017-07-17T09:17:06.018Z,14.87
2017-07-17T09:19:33.930Z,16.20
2017-07-17T09:22:01.480Z,16.20
2017-07-17T09:24:29.774Z,15.57
2017-07-17T09:26:57.344Z,15.30
2017-07-17T09:29:24.857Z,15.52
2017-07-17T09:31:52.689Z,11.60
2017-07-17T09:34:20.201Z,14.25
2017-07-17T09:36:47.742Z,12.02
2017-07-17T09:39:15.414Z,11.70
2017-07-17T09:41:44.113Z,8.32
2017-07-17T09:44:11.734Z,6.75
2017-07-17T09:46:39.297Z,6.25
2017-07-17T09:49:06.799Z,6.37
2017-07-17T09:51:34.391Z,7.12
2017-07-17T09:54:02.240Z,6.10
2017-07-17T09:56:29.813Z,5.57
2017-07-17T09:58:57.330Z,8.00
2017-07-17T10:01:25.155Z,6.22
2017-07-17T10:03:52.777Z,5.10
2017-07-17T10:06:20.304Z,6.70
2017-07-17T10:08:47.847Z,6.72
2017-07-17T10:11:16.478Z,6.30
2017-07-17T10:13:44.045Z,4.10
2017-07-17T10:16:11.563Z,4.12
2017-07-17T10:18:39.074Z,4.93
2017-07-17T10:21:07.397Z,5.07
2017-07-17T10:23:34.897Z,4.50
2017-07-17T10:26:02.508Z,4.10
2017-07-17T10:28:30.061Z,3.47
2017-07-17T10:30:57.609Z,3.62
2017-07-17T10:33:25.154Z,3.75
2017-07-17T10:35:53.454Z,4.47
2017-07-17T10:38:20.995Z,3.30
2017-07-17T10:40:48.605Z,4.37
2017-07-17T10:43:16.115Z,2.60
2017-07-17T10:45:43.638Z,2.97
2017-07-17T10:48:11.227Z,2.92
2017-07-17T10:50:39.085Z,3.40
2017-07-17T10:53:06.904Z,2.60
2017-07-17T10:55:34.412Z,3.20
2017-07-17T10:58:02.220Z,3.95
2017-07-17T11:00:29.727Z,3.45
2017-07-17T11:02:58.037Z,2.87
2017-07-17T11:05:25.813Z,2.70
2017-07-17T11:07:53.354Z,2.90
2017-07-17T11:10:20.974Z,2.72
2017-07-17T11:12:49.265Z,2.90
2017-07-17T11:15:17.122Z,3.70
2017-07-17T11:17:44.630Z,3.55
2017-07-17T11:20:12.157Z,3.22
2017-07-17T11:22:39.713Z,5.10
2017-07-17T11:25:07.305Z,5.87
2017-07-17T11:27:34.934Z,5.18
2017-07-17T11:30:02.458Z,5.60
2017-07-17T11:32:31.587Z,4.62
2017-07-17T11:34:59.112Z,5.72
2017-07-17T11:37:27.649Z,7.37
2017-07-17T11:39:55.199Z,6.35
2017-07-17T11:42:23.070Z,5.22
2017-07-17T11:44:50.743Z,6.28
2017-07-17T11:59:56.469Z,4.43
2017-07-17T12:02:23.985Z,4.50
2017-07-17T12:07:18.447Z,3.65
2017-07-17T12:09:46.835Z,3.78
2017-07-17T12:12:15.143Z,4.40
2017-07-17T12:14:42.705Z,4.20
2017-07-17T12:17:10.502Z,3.00
2017-07-17T12:19:38.034Z,3.70
2017-07-17T12:22:05.798Z,3.37
2017-07-17T12:24:33.368Z,3.95
2017-07-17T12:27:00.865Z,3.80
2017-07-17T12:29:29.204Z,5.60
2017-07-17T12:31:57.051Z,2.90
2017-07-17T12:34:24.912Z,3.62
2017-07-17T12:36:52.414Z,3.20
2017-07-17T12:39:21.075Z,3.28
2017-07-17T12:41:48.662Z,4.45
2017-07-17T12:44:16.967Z,4.55
2017-07-17T12:46:44.537Z,5.15
2017-07-17T12:49:12.130Z,6.87
2017-07-17T12:51:39.653Z,7.30
2017-07-17T12:54:07.158Z,7.00
2017-07-17T12:56:34.689Z,6.35
2017-07-17T12:59:02.184Z,4.35
2017-07-17T13:01:30.534Z,4.03
2017-07-17T13:03:58.405Z,4.10
2017-07-17T13:06:25.930Z,3.85
2017-07-17T13:08:53.793Z,4.85
2017-07-17T13:11:21.554Z,6.20
2017-07-17T13:13:49.124Z,4.00
2017-07-17T13:16:16.682Z,4.37
2017-07-17T13:18:44.201Z,4.45
2017-07-17T13:21:11.709Z,4.75
2017-07-17T13:23:39.289Z,4.62
2017-07-17T13:26:07.628Z,3.70
2017-07-17T13:28:35.437Z,2.85
2017-07-17T13:31:03.774Z,2.60
2017-07-17T13:33:31.302Z,4.37
2017-07-17T13:35:58.830Z,2.97
2017-07-17T13:38:26.326Z,2.40
2017-07-17T13:40:54.888Z,2.80
2017-07-17T13:43:22.573Z,3.70
2017-07-17T13:45:50.149Z,2.90
2017-07-17T13:48:17.672Z,2.87
2017-07-17T13:50:45.201Z,3.40
2017-07-17T13:53:12.743Z,4.75
2017-07-17T13:55:41.280Z,3.60
2017-07-17T13:58:08.839Z,3.65
2017-07-17T14:00:36.381Z,3.55
2017-07-17T14:03:03.900Z,3.37
2017-07-17T14:05:32.245Z,3.90
2017-07-17T14:07:59.841Z,5.05
2017-07-17T14:10:28.109Z,3.40
2017-07-17T14:12:56.400Z,3.28
2017-07-17T14:15:24.196Z,4.32
2017-07-17T14:17:51.716Z,3.87
2017-07-17T14:20:19.285Z,3.20
2017-07-17T14:22:46.817Z,4.32
2017-07-17T14:25:15.346Z,3.83
2017-07-17T14:27:42.961Z,5.00
2017-07-17T14:30:11.322Z,4.75
2017-07-17T14:32:39.593Z,5.07
2017-07-17T14:35:08.242Z,5.18
2017-07-17T14:37:36.001Z,5.35
2017-07-17T14:40:03.558Z,5.20
2017-07-17T14:42:31.069Z,6.28
2017-07-17T14:44:59.365Z,5.85
2017-07-17T14:47:27.285Z,6.30
2017-07-17T14:49:54.908Z,5.00
2017-07-17T14:52:22.601Z,4.85
2017-07-17T14:54:50.122Z,5.05
2017-07-17T14:57:17.645Z,8.60
2017-07-17T14:59:45.913Z,11.20
2017-07-17T15:02:14.259Z,11.40
2017-07-17T15:04:42.054Z,9.77
2017-07-17T15:07:10.392Z,11.60
2017-07-17T15:09:37.909Z,12.02
2017-07-17T15:12:05.454Z,10.75
2017-07-17T15:14:33.054Z,12.73
2017-07-17T15:17:00.607Z,10.82
2017-07-17T15:19:28.185Z,10.00
2017-07-17T15:21:56.033Z,9.85
2017-07-17T15:24:23.606Z,11.05
2017-07-17T15:26:51.143Z,10.18
2017-07-17T15:29:18.690Z,11.63
2017-07-17T15:31:46.198Z,11.68
2017-07-17T15:34:13.742Z,11.63
2017-07-17T15:36:41.276Z,10.88
2017-07-17T15:39:09.159Z,8.63
2017-07-17T15:41:36.714Z,9.85
2017-07-17T15:44:04.567Z,10.75
2017-07-17T15:46:32.110Z,7.55
2017-07-17T15:48:59.641Z,9.52
2017-07-17T15:51:27.157Z,9.85
2017-07-17T15:53:54.656Z,9.07
2017-07-17T15:56:22.227Z,8.77
2017-07-17T15:58:49.750Z,8.43
2017-07-17T16:01:18.078Z,8.27
2017-07-17T16:03:45.572Z,8.35
2017-07-17T16:06:13.939Z,7.10
2017-07-17T16:08:41.452Z,7.00
2017-07-17T16:11:08.984Z,9.45
2017-07-17T16:13:36.482Z,8.05
2017-07-17T16:16:04.025Z,7.18
2017-07-17T16:18:31.690Z,7.95
2017-07-17T16:20:59.295Z,8.80
2017-07-17T16:23:27.644Z,9.88
2017-07-17T16:25:55.239Z,10.00
2017-07-17T16:28:23.584Z,11.12
2017-07-17T16:30:51.138Z,11.57
2017-07-17T16:33:18.665Z,11.68
2017-07-17T16:35:46.192Z,11.60
2017-07-17T16:38:13.757Z,11.10
2017-07-17T16:40:41.267Z,12.00
2017-07-17T16:43:09.125Z,15.50
2017-07-17T16:45:36.629Z,17.02
2017-07-17T16:48:04.966Z,17.77
2017-07-17T16:50:32.657Z,17.50
2017-07-17T16:53:00.218Z,17.37
2017-07-17T16:55:27.792Z,16.35
2017-07-17T16:57:55.322Z,15.30
2017-07-17T17:00:23.620Z,16.98
2017-07-17T17:02:51.133Z,14.77
2017-07-17T17:05:18.696Z,14.65
2017-07-17T17:07:46.901Z,16.12
2017-07-17T17:10:14.453Z,14.20
2017-07-17T17:12:42.725Z,17.37
2017-07-17T17:15:11.078Z,17.15
2017-07-17T17:17:38.649Z,15.50
2017-07-17T17:20:06.258Z,17.98
2017-07-17T17:22:34.030Z,14.85
2017-07-17T17:25:01.788Z,15.68
2017-07-17T17:27:29.759Z,14.82
2017-07-17T17:29:57.336Z,15.63
2017-07-17T17:32:24.882Z,16.02
2017-07-17T17:34:52.401Z,16.27
2017-07-17T17:37:19.948Z,17.30
2017-07-17T17:39:47.464Z,20.27
2017-07-17T17:42:15.174Z,18.12
2017-07-17T17:44:43.291Z,19.05
2017-07-17T17:47:10.817Z,18.25
2017-07-17T17:49:39.245Z,18.33
2017-07-17T17:52:06.800Z,17.15
2017-07-17T17:54:34.376Z,19.55
2017-07-17T17:57:02.661Z,20.12
2017-07-17T17:59:30.977Z,18.87
2017-07-17T18:01:58.576Z,21.80
2017-07-17T18:04:29.741Z,21.35
2017-07-17T18:07:00.354Z,20.05
2017-07-17T18:09:28.170Z,21.17
2017-07-17T18:11:55.692Z,20.65
2017-07-17T18:14:23.253Z,20.33
2017-07-17T18:16:50.822Z,20.60
2017-07-17T18:19:18.326Z,19.48
2017-07-17T18:21:45.890Z,18.12
2017-07-17T18:24:13.394Z,21.10
2017-07-17T18:26:41.125Z,20.33
2017-07-17T18:29:09.435Z,20.00
2017-07-17T18:31:37.833Z,21.58
2017-07-17T18:34:05.338Z,20.45
2017-07-17T18:36:33.586Z,24.87
2017-07-17T18:39:01.869Z,20.88
2017-07-17T18:41:30.148Z,22.73
2017-07-17T18:43:58.457Z,22.58
2017-07-17T18:46:26.022Z,21.92
2017-07-17T18:48:53.676Z,21.62
2017-07-17T18:51:21.238Z,22.55
2017-07-17T18:53:48.841Z,21.35
2017-07-17T18:56:16.372Z,22.75
2017-07-17T18:58:43.912Z,23.40
2017-07-17T19:01:11.447Z,23.15
2017-07-17T19:03:39.725Z,22.55
2017-07-17T19:06:08.590Z,24.98
2017-07-17T19:08:36.641Z,24.15
2017-07-17T19:11:04.630Z,24.40
2017-07-17T19:13:34.252Z,24.87
2017-07-17T19:16:05.740Z,24.95
2017-07-17T19:18:35.558Z,25.25
2017-07-17T19:21:03.169Z,22.02
2017-07-17T19:23:31.286Z,23.20
2017-07-17T19:26:00.520Z,24.60
2017-07-17T19:28:29.405Z,22.52
2017-07-17T19:30:58.920Z,23.17
2017-07-17T19:33:28.250Z,25.08
2017-07-17T19:35:57.076Z,25.33
2017-07-17T19:38:25.266Z,24.42
2017-07-17T19:40:54.641Z,24.25
2017-07-17T19:43:24.320Z,25.05
2017-07-17T19:45:52.325Z,23.75
2017-07-17T19:48:21.492Z,25.50
2017-07-17T19:50:49.701Z,22.58
2017-07-17T19:53:19.572Z,22.77
2017-07-17T19:55:47.292Z,22.70
2017-07-17T19:58:15.789Z,25.40
2017-07-17T20:00:44.447Z,23.83
2017-07-17T20:03:13.377Z,24.30
2017-07-17T20:05:40.978Z,22.15
2017-07-17T20:08:08.922Z,23.02
2017-07-17T20:10:36.601Z,24.45
2017-07-17T20:13:04.186Z,22.85
2017-07-17T20:15:32.545Z,24.05
2017-07-17T20:18:00.118Z,21.75
2017-07-17T20:20:28.459Z,20.50
2017-07-17T20:22:56.308Z,21.37
2017-07-17T20:25:23.890Z,21.30
2017-07-17T20:27:51.417Z,22.20
2017-07-17T20:30:20.313Z,21.83
2017-07-17T20:32:47.851Z,20.73
2017-07-17T20:35:15.553Z,21.67
2017-07-17T20:37:43.093Z,19.70
2017-07-17T20:40:10.622Z,21.15
2017-07-17T20:42:39.689Z,20.40
2017-07-17T20:45:07.982Z,22.62
2017-07-17T20:47:35.525Z,20.25
2017-07-17T20:50:03.045Z,25.52
2017-07-17T20:52:30.578Z,22.83
2017-07-17T20:54:58.941Z,19.73
2017-07-17T20:57:26.529Z,20.52
2017-07-17T20:59:54.060Z,22.40
2017-07-17T21:02:22.584Z,23.12
2017-07-17T21:04:50.156Z,22.25
2017-07-17T21:07:18.448Z,22.58
2017-07-17T21:09:46.693Z,21.75
2017-07-17T21:12:14.931Z,21.15
2017-07-17T21:14:42.797Z,22.08
2017-07-17T21:17:10.361Z,23.90
2017-07-17T21:19:37.985Z,22.92
2017-07-17T21:22:05.805Z,22.90
2017-07-17T21:24:33.346Z,20.15
2017-07-17T21:27:01.786Z,20.67
2017-07-17T21:29:30.305Z,19.60
2017-07-17T21:31:57.818Z,21.00
2017-07-17T21:34:25.490Z,22.25
2017-07-17T21:36:53.013Z,20.20
2017-07-17T21:39:20.623Z,22.65
2017-07-17T21:41:48.506Z,23.83
2017-07-17T21:44:16.065Z,23.90
2017-07-17T21:46:44.222Z,24.40
2017-07-17T21:49:12.431Z,27.40
2017-07-17T21:51:39.963Z,23.83
2017-07-17T21:54:07.469Z,22.20
2017-07-17T21:56:35.787Z,21.00
2017-07-17T21:59:03.460Z,24.17
2017-07-17T22:01:31.141Z,22.62
2017-07-17T22:03:59.353Z,22.75
2017-07-17T22:06:26.888Z,21.83
2017-07-17T22:08:54.519Z,20.85
2017-07-17T22:11:22.111Z,21.25
2017-07-17T22:13:49.652Z,22.80
2017-07-17T22:16:17.211Z,24.30
2017-07-17T22:18:45.505Z,21.98
2017-07-17T22:21:13.047Z,22.92
2017-07-17T22:23:41.392Z,21.62
2017-07-17T22:26:09.158Z,21.87
2017-07-17T22:28:39.543Z,24.17
2017-07-17T22:31:08.441Z,21.80
2017-07-17T22:33:36.066Z,24.48
2017-07-17T22:36:03.599Z,24.87
2017-07-17T22:38:32.731Z,21.87
2017-07-17T22:41:00.526Z,24.05
2017-07-17T22:43:28.184Z,24.25
2017-07-17T22:45:55.841Z,24.17
2017-07-17T22:48:23.527Z,26.48
2017-07-17T22:50:51.097Z,26.08
2017-07-17T22:53:18.634Z,26.08
2017-07-17T22:55:46.580Z,25.67
2017-07-17T22:58:14.878Z,26.55
2017-07-17T23:00:42.407Z,24.67
2017-07-17T23:03:10.253Z,23.33
2017-07-17T23:05:37.909Z,21.67
2017-07-17T23:08:05.421Z,23.92
2017-07-17T23:10:33.729Z,20.67
2017-07-17T23:13:01.285Z,25.20
2017-07-17T23:15:28.814Z,23.77
2017-07-17T23:17:56.326Z,28.92
2017-07-17T23:20:23.903Z,23.77
2017-07-17T23:22:52.241Z,22.40
2017-07-17T23:25:19.781Z,27.87
2017-07-17T23:27:48.525Z,25.33
2017-07-17T23:30:16.030Z,32.50
2017-07-17T23:32:43.569Z,26.60
2017-07-17T23:35:11.131Z,25.62
2017-07-17T23:37:39.484Z,22.90
2017-07-17T23:40:06.998Z,26.25
2017-07-17T23:42:34.593Z,22.95
2017-07-17T23:45:02.440Z,23.87
2017-07-17T23:47:30.310Z,23.60
2017-07-17T23:49:58.651Z,21.77
2017-07-17T23:52:26.193Z,21.62
2017-07-17T23:54:54.541Z,24.02
2017-07-17T23:57:22.094Z,26.62
2017-07-17T23:59:49.808Z,23.10
